Time;durP1;ratioP1;P1;durP2;ratioP2;P2;SDS_P1;SDS_P2;PMS_P1;PMS_P2;Temp;Humidity;BMP_temperature;BMP_pressure;BME280_temperature;BME280_humidity;BME280_pressure;Samples;Min_cycle;Max_cycle;Signal;HPM_P1;HPM_P2
2023/01/16 00:02:18;;;;;;;4.17;2.17;;;;;;;5.03;82.05;99353.09;5113895;28;20655;-69
2023/01/16 00:04:44;;;;;;;3.60;2.47;;;;;;;4.98;82.23;99352.56;5113819;28;20268;-69
2023/01/16 00:07:11;;;;;;;2.10;2.10;;;;;;;4.93;82.53;99360.84;5114328;28;20212;-69
2023/01/16 00:09:37;;;;;;;4.10;2.10;;;;;;;4.98;82.46;99336.63;5113779;28;20264;-69
2023/01/16 00:12:03;;;;;;;2.77;2.10;;;;;;;4.98;82.15;99337.50;5113777;28;20554;-69
2023/01/16 00:14:30;;;;;;;2.40;2.40;;;;;;;5.02;81.70;99332.81;5113714;28;20192;-69
2023/01/16 00:16:57;;;;;;;2.30;2.13;;;;;;;5.03;80.91;99322.09;5113575;28;20213;-69
2023/01/16 00:19:23;;;;;;;2.43;2.27;;;;;;;5.13;81.56;99319.63;5113698;28;20207;-69
2023/01/16 00:21:50;;;;;;;2.73;2.63;;;;;;;5.11;81.27;99330.34;5113531;28;20189;-69
2023/01/16 00:24:16;;;;;;;2.73;2.70;;;;;;;5.06;81.98;99329.00;5113672;28;20181;-70
2023/01/16 00:26:42;;;;;;;5.40;2.43;;;;;;;5.05;82.10;99317.53;5113541;28;20278;-69
2023/01/16 00:29:09;;;;;;;4.07;2.43;;;;;;;5.07;81.62;99312.09;5095376;28;20193;-69
2023/01/16 00:31:35;;;;;;;5.37;3.03;;;;;;;5.01;82.57;99304.59;5113604;28;20207;-69
2023/01/16 00:34:01;;;;;;;2.50;2.33;;;;;;;5.12;80.28;99302.00;5113603;28;20193;-70
2023/01/16 00:36:28;;;;;;;4.20;2.33;;;;;;;5.13;79.04;99313.47;5113438;28;20293;-70
2023/01/16 00:38:56;;;;;;;3.40;2.40;;;;;;;5.25;77.50;99302.81;5113426;28;20215;-70
2023/01/16 00:41:22;;;;;;;2.20;2.20;;;;;;;5.26;76.87;99293.03;5113515;28;20714;-70
2023/01/16 00:43:48;;;;;;;2.07;2.07;;;;;;;5.32;75.35;99290.78;5113476;28;20278;-70
2023/01/16 00:46:15;;;;;;;2.27;2.10;;;;;;;5.28;75.04;99280.50;5113395;28;20185;-70
2023/01/16 00:48:41;;;;;;;1.97;1.97;;;;;;;5.26;75.15;99285.06;5113389;28;20197;-69
2023/01/16 00:51:07;;;;;;;1.50;1.40;;;;;;;5.22;75.63;99281.81;5113413;28;20668;-69
2023/01/16 00:53:34;;;;;;;1.97;1.97;;;;;;;5.21;75.73;99276.59;5113718;28;20181;-69
2023/01/16 00:56:00;;;;;;;1.53;1.53;;;;;;;5.19;75.96;99279.38;5113291;28;20209;-70
2023/01/16 00:58:26;;;;;;;5.00;2.07;;;;;;;5.25;75.70;99273.63;5113273;28;20205;-70
2023/01/16 01:00:53;;;;;;;1.40;1.30;;;;;;;5.28;75.43;99270.72;5113340;28;20219;-70
2023/01/16 01:03:19;;;;;;;2.33;1.83;;;;;;;5.25;75.96;99275.44;5113318;28;20190;-70
2023/01/16 01:05:46;;;;;;;1.67;1.57;;;;;;;5.24;76.10;99273.72;5113298;28;20173;-70
2023/01/16 01:08:12;;;;;;;6.30;1.60;;;;;;;5.25;75.91;99264.81;5113743;28;20205;-69
2023/01/16 01:10:38;;;;;;;3.03;2.30;;;;;;;5.22;75.89;99270.31;5113191;28;20190;-69
2023/01/16 01:13:06;;;;;;;2.13;2.00;;;;;;;5.24;75.66;99255.16;5113497;28;20590;-69
2023/01/16 01:15:33;;;;;;;4.43;1.97;;;;;;;5.19;75.62;99252.00;5113058;28;20185;-69
2023/01/16 01:17:59;;;;;;;2.43;2.20;;;;;;;5.20;75.52;99246.56;5113398;28;20201;-69
2023/01/16 01:20:25;;;;;;;2.10;2.07;;;;;;;5.18;75.35;99247.66;5113175;28;20194;-69
2023/01/16 01:22:52;;;;;;;2.10;2.10;;;;;;;5.11;75.75;99248.09;5113162;28;20200;-69
2023/01/16 01:25:19;;;;;;;1.60;1.50;;;;;;;5.10;75.89;99241.09;5114021;28;20182;-69
2023/01/16 01:27:45;;;;;;;1.80;1.80;;;;;;;5.02;76.27;99238.13;5116745;28;20199;-69
2023/01/16 01:30:12;;;;;;;2.20;2.10;;;;;;;4.95;76.70;99228.09;5116803;28;20188;-71
2023/01/16 01:32:38;;;;;;;2.43;2.23;;;;;;;4.96;76.42;99232.47;5116708;28;20268;-70
2023/01/16 01:35:08;;;;;;;6.93;1.80;;;;;;;4.88;76.91;99219.72;5116675;28;20559;-70
2023/01/16 01:37:35;;;;;;;1.50;1.50;;;;;;;4.83;77.15;99227.19;5116446;28;20690;-69
2023/01/16 01:40:04;;;;;;;4.90;2.37;;;;;;;4.85;76.86;99222.63;5117081;28;20265;-69
2023/01/16 01:42:42;;;;;;;2.40;2.30;;;;;;;4.78;76.81;99208.09;5116786;28;20189;-70
2023/01/16 01:45:24;;;;;;;2.27;2.23;;;;;;;4.74;77.16;99214.56;5116495;28;20172;-71
2023/01/16 01:47:54;;;;;;;4.33;2.00;;;;;;;4.73;77.41;99208.44;5116301;28;20232;-69
2023/01/16 01:50:59;;;;;;;1.87;1.80;;;;;;;4.69;76.97;99204.31;5116670;28;20222;-69
2023/01/16 01:53:32;;;;;;;1.90;1.90;;;;;;;4.69;77.12;99196.34;5116662;28;20252;-69
2023/01/16 01:56:05;;;;;;;2.73;2.60;;;;;;;4.79;76.49;99196.53;5116503;28;20551;-70
2023/01/16 01:58:33;;;;;;;2.20;2.17;;;;;;;4.73;76.50;99179.25;5116468;28;20686;-69
2023/01/16 02:01:01;;;;;;;10.50;2.20;;;;;;;4.67;76.54;99179.72;5116463;28;20268;-69
2023/01/16 02:03:34;;;;;;;3.93;2.13;;;;;;;4.68;76.71;99173.47;5116094;28;20568;-69
2023/01/16 02:06:05;;;;;;;4.37;2.23;;;;;;;4.69;77.18;99176.00;5116375;28;20185;-69
2023/01/16 02:08:33;;;;;;;2.50;2.30;;;;;;;4.60;77.18;99178.47;5116073;28;20219;-69
2023/01/16 02:11:07;;;;;;;2.13;2.00;;;;;;;4.60;77.70;99162.56;5116222;28;20671;-69
2023/01/16 02:13:37;;;;;;;2.60;2.60;;;;;;;4.57;77.17;99160.97;5116240;28;20258;-69
2023/01/16 02:19:15;;;;;;;3.07;2.87;;;;;;;4.57;76.83;99158.31;5071015;28;20200;-70
2023/01/16 02:22:12;;;;;;;2.60;1.83;;;;;;;4.57;76.84;99149.50;5115960;28;20177;-70
2023/01/16 02:25:13;;;;;;;3.80;3.60;;;;;;;4.51;77.46;99145.50;5115990;28;20578;-70
2023/01/16 02:28:15;;;;;;;7.50;2.60;;;;;;;4.54;76.94;99139.97;5115992;28;20300;-69
2023/01/16 02:30:47;;;;;;;3.90;2.80;;;;;;;4.50;77.15;99127.91;5115615;28;20177;-70
2023/01/16 02:33:30;;;;;;;6.63;2.50;;;;;;;4.50;77.21;99138.50;5116115;28;20412;-70
2023/01/16 02:36:15;;;;;;;3.60;2.80;;;;;;;4.55;77.24;99127.56;5115538;28;20176;-70
2023/01/16 02:39:15;;;;;;;4.23;4.10;;;;;;;4.42;78.49;99119.69;5115379;28;20215;-69
2023/01/16 02:42:14;;;;;;;3.07;2.87;;;;;;;4.40;77.83;99098.56;5115207;28;20655;-69
2023/01/16 02:45:03;;;;;;;3.10;2.97;;;;;;;4.39;77.70;99099.53;5104573;28;20202;-69
2023/01/16 02:47:48;;;;;;;3.53;3.30;;;;;;;4.39;77.75;99088.94;5115187;28;20208;-69
2023/01/16 02:50:36;;;;;;;3.30;3.20;;;;;;;4.36;78.22;99080.38;5115502;28;20184;-69
2023/01/16 02:53:14;;;;;;;4.73;3.90;;;;;;;4.34;78.34;99083.13;5115430;28;20177;-69
2023/01/16 02:55:54;;;;;;;6.03;4.20;;;;;;;4.32;78.38;99076.25;5115094;28;20203;-69
2023/01/16 02:58:21;;;;;;;3.17;3.03;;;;;;;4.36;78.35;99070.63;5114982;28;20571;-69
2023/01/16 03:00:56;;;;;;;4.30;2.47;;;;;;;4.41;78.66;99057.88;5115238;28;20268;-69
2023/01/16 03:03:42;;;;;;;3.40;3.10;;;;;;;4.46;78.58;99055.72;5115540;28;20168;-69
2023/01/16 03:06:39;;;;;;;3.03;2.40;;;;;;;4.47;78.22;99052.09;5115462;28;20248;-70
2023/01/16 03:09:30;;;;;;;4.70;4.20;;;;;;;4.59;78.57;99041.56;5115098;28;20177;-69
2023/01/16 03:12:24;;;;;;;3.27;3.07;;;;;;;4.58;78.08;99038.06;5115315;28;20173;-69
2023/01/16 03:15:11;;;;;;;3.80;3.40;;;;;;;4.58;78.11;99032.78;5114951;28;20170;-69
2023/01/16 03:17:58;;;;;;;2.30;2.17;;;;;;;4.60;78.38;99030.84;5114575;28;20221;-69
2023/01/16 03:20:54;;;;;;;4.00;2.53;;;;;;;4.59;78.30;99025.66;5114850;28;20170;-69
2023/01/16 03:23:31;;;;;;;3.63;3.33;;;;;;;4.61;78.52;99019.28;5114383;28;20192;-69
2023/01/16 03:26:03;;;;;;;2.83;2.73;;;;;;;4.67;78.54;99028.59;5096731;28;20185;-69
2023/01/16 03:28:40;;;;;;;2.87;2.77;;;;;;;4.61;78.98;99015.78;5114605;28;20574;-69
2023/01/16 03:31:17;;;;;;;4.50;3.90;;;;;;;4.71;78.45;99015.94;5114743;28;20179;-69
2023/01/16 03:34:08;;;;;;;2.50;2.40;;;;;;;4.65;78.22;99012.78;5114945;28;20169;-69
2023/01/16 03:36:39;;;;;;;1.97;1.97;;;;;;;4.69;78.70;98994.84;5114292;28;20197;-69
2023/01/16 03:39:08;;;;;;;3.03;2.93;;;;;;;4.68;78.53;98994.00;5114317;28;20194;-69
2023/01/16 03:41:38;;;;;;;2.53;1.90;;;;;;;4.62;78.75;98986.53;5114759;28;20209;-69
2023/01/16 03:44:12;;;;;;;2.20;2.20;;;;;;;4.67;78.38;98967.63;5114527;28;20177;-69
2023/01/16 03:46:47;;;;;;;3.33;3.07;;;;;;;4.62;78.15;98956.50;5114394;28;20611;-69
2023/01/16 03:49:18;;;;;;;3.13;3.13;;;;;;;4.61;78.34;98952.16;5114167;28;20168;-70
2023/01/16 03:51:49;;;;;;;3.43;3.37;;;;;;;4.50;78.30;98960.91;5114107;28;20177;-70
2023/01/16 03:54:37;;;;;;;4.90;4.80;;;;;;;4.46;78.36;98949.72;5114337;28;20181;-70
2023/01/16 03:57:27;;;;;;;2.93;2.83;;;;;;;4.38;78.82;98954.75;5114171;28;20224;-69
2023/01/16 03:59:54;;;;;;;3.30;3.07;;;;;;;4.42;78.52;98958.00;5114221;28;20177;-69
2023/01/16 04:02:28;;;;;;;3.80;3.70;;;;;;;4.38;78.61;98953.88;5114235;28;20208;-69
2023/01/16 04:05:02;;;;;;;2.87;2.77;;;;;;;4.34;79.10;98939.19;5114453;28;20168;-69
2023/01/16 04:07:42;;;;;;;2.13;2.03;;;;;;;4.25;79.48;98935.41;5113839;28;20209;-69
2023/01/16 04:10:12;;;;;;;1.83;1.83;;;;;;;4.23;79.30;98926.72;5114393;28;20173;-69
2023/01/16 04:12:44;;;;;;;1.60;1.60;;;;;;;4.23;79.45;98916.97;5114372;28;20169;-69
2023/01/16 04:15:11;;;;;;;1.93;1.80;;;;;;;4.28;79.95;98911.34;5114344;28;20174;-69
2023/01/16 04:17:39;;;;;;;1.40;1.40;;;;;;;4.27;79.54;98893.75;5114092;28;20228;-69
2023/01/16 04:20:07;;;;;;;1.80;1.80;;;;;;;4.31;79.86;98894.34;5113721;28;20276;-69
2023/01/16 04:22:34;;;;;;;2.27;2.17;;;;;;;4.44;79.28;98892.47;5113779;28;20217;-69
2023/01/16 04:25:03;;;;;;;1.90;1.80;;;;;;;4.41;79.10;98882.13;5113909;28;20291;-69
2023/01/16 04:27:30;;;;;;;1.90;1.90;;;;;;;4.36;79.03;98879.81;5113701;28;20213;-69
2023/01/16 04:29:56;;;;;;;2.00;2.00;;;;;;;4.36;79.44;98869.22;5113590;28;20267;-69
2023/01/16 04:32:22;;;;;;;1.50;1.50;;;;;;;4.40;79.39;98859.22;5113571;28;20191;-69
2023/01/16 04:34:49;;;;;;;1.77;1.77;;;;;;;4.41;79.39;98847.66;5113587;28;20261;-69
2023/01/16 04:37:17;;;;;;;2.67;2.57;;;;;;;4.37;79.54;98844.41;5113387;28;20224;-69
2023/01/16 04:39:43;;;;;;;2.90;2.90;;;;;;;4.40;79.01;98835.38;5113728;28;20617;-69
2023/01/16 04:42:10;;;;;;;2.60;2.50;;;;;;;4.42;79.11;98830.78;5114058;28;20191;-69
2023/01/16 04:44:37;;;;;;;3.83;2.73;;;;;;;4.42;79.16;98828.97;5113461;28;20182;-69
2023/01/16 04:47:04;;;;;;;2.80;2.27;;;;;;;4.45;78.85;98814.66;5113785;28;20722;-69
2023/01/16 04:49:31;;;;;;;2.17;2.17;;;;;;;4.34;79.37;98818.13;5113378;28;20275;-69
2023/01/16 04:51:57;;;;;;;2.57;2.40;;;;;;;4.35;79.16;98795.97;5113424;28;20191;-69
2023/01/16 04:54:24;;;;;;;3.00;2.90;;;;;;;4.36;79.26;98791.53;5113407;28;20265;-69
2023/01/16 04:56:50;;;;;;;2.90;2.73;;;;;;;4.28;78.57;98780.66;5113542;28;20189;-69
2023/01/16 04:59:17;;;;;;;2.87;2.77;;;;;;;4.28;78.56;98768.25;5113295;28;20216;-69
2023/01/16 05:01:44;;;;;;;1.70;1.63;;;;;;;4.27;78.92;98758.63;5116666;28;20213;-69
2023/01/16 05:04:13;;;;;;;1.43;1.43;;;;;;;4.23;78.79;98754.53;5099237;28;20185;-69
2023/01/16 05:06:40;;;;;;;2.30;2.30;;;;;;;4.25;79.10;98748.16;5117131;28;20670;-68
2023/01/16 05:09:07;;;;;;;3.50;3.20;;;;;;;4.17;79.15;98747.06;5117145;28;20199;-68
2023/01/16 05:11:34;;;;;;;2.23;2.20;;;;;;;4.17;79.13;98737.31;5117144;28;20224;-69
2023/01/16 05:14:01;;;;;;;2.70;2.60;;;;;;;4.14;79.69;98742.84;5117099;28;20521;-69
2023/01/16 05:16:27;;;;;;;1.70;1.70;;;;;;;4.11;80.36;98737.78;5117046;28;20185;-69
2023/01/16 05:18:54;;;;;;;2.47;2.47;;;;;;;4.17;80.23;98728.53;5116882;28;20240;-69
2023/01/16 05:21:20;;;;;;;2.43;2.33;;;;;;;4.17;80.21;98718.78;5116934;28;20189;-69
2023/01/16 05:23:47;;;;;;;1.97;1.97;;;;;;;4.13;80.71;98704.06;5116874;28;20208;-69
2023/01/16 05:26:13;;;;;;;2.07;1.97;;;;;;;4.13;80.29;98705.88;5116802;28;20189;-69
2023/01/16 05:28:39;;;;;;;1.87;1.87;;;;;;;4.14;80.15;98699.59;5116692;28;20200;-69
2023/01/16 05:31:06;;;;;;;1.73;1.73;;;;;;;4.11;80.29;98694.56;5116655;28;20190;-69
2023/01/16 05:33:32;;;;;;;2.63;2.53;;;;;;;4.07;79.57;98686.03;5116979;28;20176;-70
2023/01/16 05:35:59;;;;;;;2.37;2.13;;;;;;;4.08;80.20;98679.75;5116588;28;20189;-70
2023/01/16 05:38:25;;;;;;;1.77;1.77;;;;;;;4.13;80.47;98671.44;5116397;28;20217;-70
2023/01/16 05:40:52;;;;;;;2.50;2.50;;;;;;;4.08;80.90;98670.97;5116866;28;20187;-70
2023/01/16 05:43:18;;;;;;;2.00;1.93;;;;;;;4.14;80.44;98671.34;5116512;28;20680;-70
2023/01/16 05:45:44;;;;;;;3.33;2.30;;;;;;;4.06;79.79;98668.44;5116727;28;20651;-70
2023/01/16 05:48:11;;;;;;;2.17;2.07;;;;;;;4.02;80.20;98659.03;5116375;28;20203;-70
2023/01/16 05:50:37;;;;;;;2.10;2.00;;;;;;;4.05;79.75;98657.00;5116337;28;20185;-70
2023/01/16 05:53:04;;;;;;;2.07;2.00;;;;;;;4.02;81.00;98645.78;5116284;28;20192;-70
2023/01/16 05:55:30;;;;;;;2.63;2.13;;;;;;;4.01;80.82;98642.31;5116257;28;20192;-70
2023/01/16 05:57:56;;;;;;;2.10;2.07;;;;;;;4.04;80.18;98628.81;5116580;28;20567;-71
2023/01/16 06:00:23;;;;;;;3.17;1.67;;;;;;;4.00;80.13;98623.91;5116417;28;20640;-71
2023/01/16 06:02:49;;;;;;;4.73;2.13;;;;;;;4.01;80.71;98612.34;5116676;28;20342;-70
2023/01/16 06:05:16;;;;;;;1.83;1.70;;;;;;;4.01;79.95;98607.03;5116022;28;20234;-71
2023/01/16 06:07:42;;;;;;;2.60;2.27;;;;;;;4.00;80.31;98603.56;5116534;28;20286;-70
2023/01/16 06:10:10;;;;;;;3.83;3.73;;;;;;;4.03;80.35;98586.56;5115977;28;20197;-71
2023/01/16 06:12:36;;;;;;;2.17;2.17;;;;;;;4.01;80.25;98589.34;5115802;28;20288;-71
2023/01/16 06:15:03;;;;;;;2.30;2.20;;;;;;;4.01;80.42;98575.25;5115892;28;20193;-71
2023/01/16 06:17:29;;;;;;;1.93;1.83;;;;;;;4.03;79.94;98570.69;5115722;28;20238;-69
2023/01/16 06:19:56;;;;;;;1.87;1.87;;;;;;;4.08;79.87;98565.84;5115783;28;20189;-70
2023/01/16 06:22:25;;;;;;;6.37;1.63;;;;;;;4.13;79.64;98552.25;5115557;28;20256;-70
2023/01/16 06:24:51;;;;;;;2.50;2.00;;;;;;;4.16;79.58;98541.41;5116040;28;20184;-70
2023/01/16 06:27:17;;;;;;;1.70;1.70;;;;;;;4.18;79.76;98523.56;5115855;28;20201;-70
2023/01/16 06:29:44;;;;;;;1.90;1.90;;;;;;;4.19;79.67;98534.06;5115595;28;20185;-70
2023/01/16 06:32:10;;;;;;;7.90;3.00;;;;;;;4.24;80.00;98529.22;5115806;28;20181;-70
2023/01/16 06:34:36;;;;;;;5.93;2.03;;;;;;;4.21;79.27;98528.63;5115742;28;20189;-70
2023/01/16 06:37:03;;;;;;;1.90;1.90;;;;;;;4.24;79.80;98523.94;5115545;28;20605;-69
2023/01/16 06:39:29;;;;;;;1.93;1.83;;;;;;;4.28;79.50;98515.72;5115964;28;20193;-70
2023/01/16 06:41:56;;;;;;;3.70;1.90;;;;;;;4.29;78.94;98507.66;5115611;28;20189;-71
2023/01/16 06:44:22;;;;;;;1.73;1.73;;;;;;;4.37;79.21;98502.56;5115561;28;20188;-71
2023/01/16 06:46:48;;;;;;;5.43;1.90;;;;;;;4.35;78.78;98493.88;5115648;28;20191;-69
2023/01/16 06:49:15;;;;;;;3.33;2.30;;;;;;;4.36;79.12;98487.63;5115523;28;20192;-69
2023/01/16 06:51:42;;;;;;;3.07;2.97;;;;;;;4.43;78.50;98482.66;5115410;28;20540;-71
2023/01/16 06:54:09;;;;;;;2.53;2.43;;;;;;;4.50;77.95;98475.03;5116121;28;20189;-70
2023/01/16 06:56:36;;;;;;;3.47;3.37;;;;;;;4.61;77.57;98459.09;5116433;28;20234;-70
2023/01/16 06:59:02;;;;;;;3.53;3.23;;;;;;;4.63;77.97;98460.63;5116105;28;20209;-70
2023/01/16 07:01:28;;;;;;;4.17;2.53;;;;;;;4.63;77.81;98457.16;5116434;28;20185;-70
2023/01/16 07:03:55;;;;;;;2.30;2.30;;;;;;;4.71;76.93;98444.06;5116058;28;20192;-70
2023/01/16 07:06:22;;;;;;;3.23;2.20;;;;;;;4.68;77.60;98436.38;5116633;28;20177;-70
2023/01/16 07:08:50;;;;;;;2.57;2.47;;;;;;;4.73;76.72;98430.69;5116486;28;20216;-69
2023/01/16 07:11:17;;;;;;;1.80;1.80;;;;;;;4.69;77.46;98430.97;5115277;28;20195;-70
2023/01/16 07:13:44;;;;;;;3.20;3.10;;;;;;;4.72;77.07;98419.25;5114838;28;20611;-70
2023/01/16 07:24:32;;;;;;;2.60;2.60;;;;;;;4.90;76.04;98400.94;5115283;28;20169;-69
2023/01/16 07:27:02;;;;;;;2.87;2.77;;;;;;;4.96;75.67;98389.81;5115648;28;20252;-69
2023/01/16 07:29:30;;;;;;;2.17;2.07;;;;;;;4.92;76.42;98385.72;5116218;28;20197;-69
2023/01/16 07:31:58;;;;;;;2.43;2.33;;;;;;;4.90;76.43;98385.00;5114958;28;20185;-70
2023/01/16 07:34:25;;;;;;;1.93;1.93;;;;;;;4.93;76.62;98352.91;5114584;28;20220;-70
2023/01/16 07:36:51;;;;;;;2.10;2.00;;;;;;;4.94;76.91;98351.13;5114265;28;20647;-69
2023/01/16 07:39:18;;;;;;;7.00;2.60;;;;;;;4.96;76.88;98373.06;5114211;28;20546;-70
2023/01/16 07:41:45;;;;;;;2.67;2.27;;;;;;;4.92;77.40;98371.63;5114089;28;20756;-70
2023/01/16 07:44:23;;;;;;;5.67;3.00;;;;;;;4.86;78.18;98352.63;5114426;28;20169;-70
2023/01/16 07:46:49;;;;;;;3.57;3.27;;;;;;;4.84;79.33;98351.91;5114087;28;20204;-70
2023/01/16 07:49:16;;;;;;;2.87;2.67;;;;;;;4.81;80.43;98338.06;5114342;28;20594;-69
2023/01/16 07:51:42;;;;;;;3.23;2.90;;;;;;;4.84;79.87;98333.34;5114100;28;20219;-69
2023/01/16 07:54:08;;;;;;;2.73;2.63;;;;;;;4.71;80.27;98321.28;5114024;28;20185;-69
2023/01/16 07:56:35;;;;;;;2.83;2.83;;;;;;;4.71;80.75;98316.00;5114022;28;20234;-70
2023/01/16 07:59:01;;;;;;;2.67;2.67;;;;;;;4.68;80.60;98311.78;5113782;28;20209;-70
2023/01/16 08:01:27;;;;;;;2.53;2.50;;;;;;;4.65;81.44;98302.28;5113883;28;20189;-70
2023/01/16 08:03:54;;;;;;;4.13;3.03;;;;;;;4.61;81.00;98300.03;5114323;28;20195;-70
2023/01/16 08:06:20;;;;;;;2.37;2.37;;;;;;;4.57;81.63;98285.38;5113911;28;20200;-70
2023/01/16 08:08:47;;;;;;;3.07;2.97;;;;;;;4.58;81.17;98281.75;5114033;28;20208;-70
2023/01/16 08:13:58;;;;;;;3.10;3.00;;;;;;;4.45;83.47;98261.63;5114378;28;20177;-70
2023/01/16 08:16:24;;;;;;;4.20;4.10;;;;;;;4.40;83.14;98249.72;5114201;28;20185;-70
2023/01/16 08:18:50;;;;;;;5.60;5.30;;;;;;;4.36;83.97;98246.53;5113585;28;20209;-72
2023/01/16 08:21:17;;;;;;;6.27;4.70;;;;;;;4.37;83.65;98228.81;5113860;28;20195;-71
2023/01/16 08:23:44;;;;;;;2.93;2.83;;;;;;;4.33;83.62;98224.75;5113524;28;20562;-71
2023/01/16 08:26:10;;;;;;;2.80;2.70;;;;;;;4.29;83.63;98200.34;5113582;28;20189;-71
2023/01/16 08:28:37;;;;;;;2.33;2.13;;;;;;;4.28;84.00;98197.81;5113511;28;20204;-72
2023/01/16 08:31:13;;;;;;;3.40;3.30;;;;;;;4.25;84.04;98194.44;5113648;28;20528;-72
2023/01/16 08:33:41;;;;;;;4.00;3.90;;;;;;;4.23;84.81;98177.84;5113908;28;20188;-72
2023/01/16 08:36:09;;;;;;;3.30;3.17;;;;;;;4.22;84.47;98170.88;5116303;28;20542;-72
2023/01/16 08:38:37;;;;;;;2.93;2.73;;;;;;;4.30;84.22;98166.72;5117660;28;20319;-72
2023/01/16 08:41:04;;;;;;;6.47;2.83;;;;;;;4.22;84.71;98156.81;5117780;28;20194;-72
2023/01/16 08:51:58;;;;;;;5.07;2.57;;;;;;;4.28;84.53;98142.19;5117858;28;20173;-72
2023/01/16 08:54:25;;;;;;;3.80;2.63;;;;;;;4.31;84.17;98133.94;5117857;28;20238;-72
2023/01/16 08:56:51;;;;;;;3.17;2.70;;;;;;;4.31;83.70;98126.00;5117725;28;20681;-71
2023/01/16 08:59:18;;;;;;;3.13;2.33;;;;;;;4.41;83.34;98122.41;5117295;28;20204;-72
2023/01/16 09:01:44;;;;;;;4.00;2.53;;;;;;;4.34;83.52;98108.03;5117329;28;20217;-72
2023/01/16 09:04:11;;;;;;;4.17;2.60;;;;;;;4.39;83.57;98102.34;5117287;28;20191;-72
2023/01/16 09:06:37;;;;;;;2.43;2.30;;;;;;;4.40;83.03;98104.00;5117807;28;20246;-72
2023/01/16 09:09:06;;;;;;;2.13;2.10;;;;;;;4.47;82.84;98087.41;5117411;28;20543;-71
2023/01/16 09:14:19;;;;;;;2.20;2.10;;;;;;;4.51;81.73;98077.38;5117344;28;20166;-72
2023/01/16 09:16:52;;;;;;;2.73;2.73;;;;;;;4.57;81.15;98082.13;5117382;28;20177;-70
2023/01/16 09:19:18;;;;;;;4.30;2.70;;;;;;;4.59;81.19;98074.03;5116858;28;20235;-71
2023/01/16 09:21:45;;;;;;;2.13;2.13;;;;;;;4.71;81.12;98085.34;5116912;28;20216;-71
2023/01/16 09:24:11;;;;;;;2.77;2.67;;;;;;;4.74;80.33;98066.50;5116767;28;20230;-71
2023/01/16 09:26:37;;;;;;;2.70;2.50;;;;;;;4.74;80.78;98069.16;5116805;28;20224;-72
2023/01/16 09:29:04;;;;;;;3.70;2.63;;;;;;;4.78;80.70;98059.97;5117087;28;20277;-71
2023/01/16 09:31:30;;;;;;;2.03;2.03;;;;;;;4.84;79.99;98051.47;5117037;28;20189;-71
2023/01/16 09:33:56;;;;;;;3.30;2.40;;;;;;;4.81;80.16;98046.41;5116666;28;20189;-71
2023/01/16 09:36:23;;;;;;;4.17;2.33;;;;;;;4.74;80.83;98048.81;5116673;28;20189;-71
2023/01/16 09:38:49;;;;;;;2.33;2.33;;;;;;;4.80;80.06;98055.34;5116536;28;20213;-72
2023/01/16 09:44:07;;;;;;;3.37;3.27;;;;;;;4.84;80.63;98046.16;5116810;28;20193;-72
2023/01/16 09:46:39;;;;;;;3.03;1.93;;;;;;;4.76;80.66;98033.56;5116506;28;20257;-72
2023/01/16 09:49:20;;;;;;;4.47;2.00;;;;;;;4.78;80.49;98030.78;5116781;28;20169;-72
2023/01/16 10:00:29;;;;;;;4.17;2.33;;;;;;;4.88;80.41;98013.91;5116253;28;20201;-71
2023/01/16 10:02:56;;;;;;;2.37;2.17;;;;;;;4.83;80.29;98007.34;5116461;28;20183;-71
2023/01/16 10:05:27;;;;;;;2.57;2.57;;;;;;;4.79;80.28;98016.53;5116428;28;20177;-72
2023/01/16 10:08:08;;;;;;;2.23;2.23;;;;;;;4.81;80.72;98015.47;5116308;28;20205;-71
2023/01/16 10:10:43;;;;;;;1.93;1.93;;;;;;;4.84;79.78;98001.06;5116053;28;20188;-71
2023/01/16 10:13:19;;;;;;;1.40;1.40;;;;;;;4.79;80.46;97995.34;5116063;28;20165;-71
2023/01/16 10:16:04;;;;;;;2.10;2.00;;;;;;;4.76;80.78;97991.16;5116001;28;20165;-71
2023/01/16 10:18:50;;;;;;;4.40;2.00;;;;;;;4.73;80.18;97987.97;5116379;28;20209;-71
2023/01/16 10:21:25;;;;;;;2.43;2.43;;;;;;;4.71;79.23;97980.16;5116162;28;20591;-72
2023/01/16 10:24:06;;;;;;;2.10;2.10;;;;;;;4.77;80.00;97966.34;5116763;28;20199;-72
2023/01/16 10:26:48;;;;;;;2.23;2.13;;;;;;;4.74;80.38;97968.41;5116343;28;20201;-72
2023/01/16 10:29:31;;;;;;;2.33;2.33;;;;;;;4.73;80.40;97972.06;5116520;28;20492;-71
2023/01/16 10:32:12;;;;;;;5.50;3.40;;;;;;;4.79;80.51;97960.88;5115632;28;20177;-71
2023/01/16 10:35:00;;;;;;;2.57;2.47;;;;;;;4.80;80.54;97962.56;5115821;28;20186;-71
2023/01/16 10:37:27;;;;;;;2.53;2.43;;;;;;;4.79;80.73;97959.09;5115930;28;20566;-71
2023/01/16 10:39:55;;;;;;;3.43;3.00;;;;;;;4.72;81.30;97939.41;5115944;28;20204;-71
2023/01/16 10:51:01;;;;;;;4.10;1.80;;;;;;;4.60;81.28;97922.00;5115229;28;20619;-72
2023/01/16 10:53:28;;;;;;;1.93;1.93;;;;;;;4.63;79.65;97921.72;5115773;28;20710;-72
2023/01/16 10:55:56;;;;;;;2.00;2.00;;;;;;;4.68;80.33;97909.69;5115120;28;20651;-72
2023/01/16 10:58:27;;;;;;;2.83;2.00;;;;;;;4.72;79.68;97904.09;5114257;28;20311;-71
2023/01/16 11:01:03;;;;;;;2.47;2.30;;;;;;;4.74;79.47;97880.94;5114960;28;20190;-71
2023/01/16 11:03:36;;;;;;;1.50;1.50;;;;;;;4.76;79.06;97882.47;5115037;28;20191;-71
2023/01/16 11:06:07;;;;;;;1.70;1.70;;;;;;;4.87;77.41;97878.81;5114861;28;20655;-71
2023/01/16 11:08:35;;;;;;;1.70;1.70;;;;;;;4.92;77.67;97883.69;5114879;28;20207;-72
2023/01/16 11:11:02;;;;;;;2.53;1.73;;;;;;;4.90;77.43;97882.00;5114834;28;20181;-72
2023/01/16 11:19:23;;;;;;;2.83;1.53;;;;;;;5.05;75.51;97860.31;5115180;28;20544;-72
2023/01/16 11:21:58;;;;;;;3.40;1.80;;;;;;;5.08;74.46;97860.88;5114465;28;20181;-71
2023/01/16 11:24:33;;;;;;;2.10;2.10;;;;;;;5.16;74.65;97854.00;5115205;28;20173;-71
2023/01/16 11:27:02;;;;;;;1.73;1.63;;;;;;;5.22;75.23;97848.94;5114700;28;20207;-70
2023/01/16 11:29:36;;;;;;;1.80;1.70;;;;;;;5.23;74.66;97845.28;5114441;28;20268;-71
2023/01/16 11:32:08;;;;;;;1.53;1.53;;;;;;;5.41;74.16;97823.25;5114451;28;20610;-71
2023/01/16 11:34:37;;;;;;;2.17;2.17;;;;;;;5.45;73.61;97835.25;5114867;28;20270;-71
2023/01/16 11:37:06;;;;;;;1.40;1.40;;;;;;;5.56;72.81;97818.28;5114269;28;20219;-71
2023/01/16 11:39:35;;;;;;;1.53;1.53;;;;;;;5.61;73.39;97808.03;5114201;28;20207;-71
2023/01/16 11:47:50;;;;;;;1.80;1.80;;;;;;;5.85;72.27;97802.94;5113992;28;20213;-71
2023/01/16 11:50:27;;;;;;;1.20;1.20;;;;;;;5.83;72.03;97791.63;5114682;28;20177;-71
2023/01/16 11:52:53;;;;;;;1.27;1.20;;;;;;;5.82;71.30;97787.31;5114432;28;20196;-71
2023/01/16 11:55:25;;;;;;;1.60;1.60;;;;;;;5.86;71.34;97778.03;5114198;28;20643;-71
2023/01/16 11:58:25;;;;;;;1.83;1.83;;;;;;;5.76;71.75;97764.84;5113956;28;20690;-71
2023/01/16 12:02:15;;;;;;;1.90;1.90;;;;;;;5.73;72.15;97781.09;5113735;28;20279;-72
2023/01/16 12:04:23;;;;;;;1.73;1.73;;;;;;;5.70;71.71;97767.31;5113704;28;20235;-72
2023/01/16 12:07:17;;;;;;;1.33;1.33;;;;;;;5.70;71.96;97749.56;5114058;28;20188;-71
2023/01/16 12:10:28;;;;;;;1.17;1.17;;;;;;;5.66;71.31;97737.56;5113938;28;20166;-72
2023/01/16 12:16:03;;;;;;;1.53;1.53;;;;;;;5.64;72.59;97718.28;5114265;28;20184;-72
2023/01/16 12:18:51;;;;;;;2.07;1.80;;;;;;;5.59;73.70;97711.78;5113602;28;20251;-71
2023/01/16 12:21:35;;;;;;;1.80;1.80;;;;;;;5.57;72.92;97708.44;5113964;28;20193;-72
2023/01/16 12:24:28;;;;;;;2.70;1.90;;;;;;;5.56;73.68;97699.66;5113502;28;20197;-72
2023/01/16 12:27:06;;;;;;;2.07;2.07;;;;;;;5.58;73.25;97696.84;5113972;28;20515;-71
2023/01/16 12:29:58;;;;;;;1.20;1.20;;;;;;;5.59;74.04;97693.22;5113945;28;20174;-71
2023/01/16 12:32:46;;;;;;;2.67;2.67;;;;;;;5.68;74.43;97684.31;5113838;28;20197;-71
2023/01/16 12:35:34;;;;;;;1.90;1.90;;;;;;;5.84;75.13;97679.13;5114148;28;20170;-71
2023/01/16 12:38:11;;;;;;;1.60;1.60;;;;;;;6.05;74.00;97667.31;5113523;28;20207;-71
2023/01/16 12:40:50;;;;;;;1.83;1.83;;;;;;;6.13;73.49;97656.72;5113444;28;20201;-71
2023/01/16 12:43:30;;;;;;;1.10;1.10;;;;;;;6.04;73.47;97663.00;5114112;28;20242;-71
2023/01/16 12:46:03;;;;;;;1.73;1.73;;;;;;;6.04;73.11;97652.38;5113858;28;20165;-71
2023/01/16 12:48:34;;;;;;;1.90;1.90;;;;;;;5.91;72.18;97643.00;5113417;28;20224;-71
2023/01/16 12:51:19;;;;;;;4.30;1.63;;;;;;;5.81;72.38;97649.38;5113495;28;20184;-71
2023/01/16 12:53:48;;;;;;;2.28;2.13;;;;;;;5.81;73.35;97636.09;5113825;28;20420;-71
2023/01/16 12:56:49;;;;;;;1.43;1.43;;;;;;;5.76;72.93;97620.66;5113480;28;20186;-71
2023/01/16 12:59:28;;;;;;;1.60;1.60;;;;;;;5.66;73.36;97623.41;5114020;28;20196;-71
2023/01/16 13:02:11;;;;;;;1.90;1.90;;;;;;;5.61;74.32;97606.28;5113397;28;20177;-72
2023/01/16 13:04:42;;;;;;;1.70;1.70;;;;;;;5.58;74.83;97604.78;5113296;28;20170;-71